INDIA METEOROLOGICAL DEPARTMENT, R.M.C. NEW DELHI
Dated:22 - 8 - 2017
METARS


Agartala   
VEAT 220900Z 28010KT 6000 FEW020 SCT100 35/27 Q1000 NOSIG=
Ahmedabad  
VAAH 220900Z 15003KT 5000 HZ FEW020 SCT025 33/25 Q1000 NOSIG=
Amritsar   
VIAR 220900Z VRB02KT 6000 SCT035 34/28 Q1002 NOSIG=
Aurangabad 
VAAU 220900Z 27004KT 5000M HZ SCT020 SCT025 BKN100 27/23 Q1006 NOSIG=
Bangalore  
VOBL 220900Z 28012KT 9999 SCT012 SCT018 28/19 Q1009 NOSIG=
Bhopal     
VABP 220900Z 14007KT 6000 FEW020 SCT025 BKN100 28/24 Q1004 NOSIG=
Bhubaneswar
VEBS 220900Z 16003KT 5000 HZ SCT018 FEW030CB BKN100 32/28 Q1001 TEMPO 3000 -RA=
Chennai    
VOMM 220900Z 28004KT 7000 SCT020 BKN100 31/24 Q1003 NOSIG=
Coimbatore 
VOCB 220900Z 20010G20KT 8000 SCT015 SCT080 31/23 Q1007 NOSIG=
Colombo    
VCBI 220910Z 24009KT 9999 SCT018 30/24 Q1006 NOSIG=
Delhi      
VIDP 220900Z 02007KT 3200 BR FEW030 FEW035CB OVC080 30/27 Q1002 TEMPO 1500 TSRA=
Dehradun   
VIDN 220800Z 34006KT 6000 SCT020 BKN080 30/25 Q1005 =
Gauhati    
VEGT 220900Z 01008KT 6000 SCT020 FEW025CB SCT100 36/27 Q1000 NOSIG=
Gaya       
VEGY 220900Z 02003KT 5000 HZ SCT018 SCT025 FEW030CB 34/26 Q1001 NOSIG=
Fursatganj 
VERB 220900Z VRB02KT 3500 TS SCT020 FEW030CB OVC090 30/26 Q1000=
Hyderabad  
VOHS 220900Z 28006KT 6000 SCT015 SCT025 31/23 Q1006 NOSIG=
Imphal     
VEIM 220900Z 31003KT 7000 SCT018 SCT025 30/24 Q1005 NOSIG=
Indore     
VAID 220900Z 16006KT 5000 HZ SCT020 SCT025 28/25 Q1004 NOSIG=
Jaipur     
VIJP 220900Z 11012KT 4000 HZ SCT025 SCT030 FEW035CB 34/24 Q1002 TEMPO 1500 TSRA=
Khajuraho  
VEKO 220900Z 25004KT 6000 SCT025 SCT100 34/25 Q1001=
Kochi      
VOCI 220900Z 24008KT 5000 HZ SCT015 BKN080 29/23 Q1006 NOSIG=
Kolkata    
VECC 220900Z 15004KT 3200 HZ SCT018 FEW030CB BKN100 33/26 Q1001 TEMPO 2000 RA=
Kozhikode  
VOCL 220900Z 24011KT 6000 SCT012 FEW025CB BKN080 27/23 Q1006 NOSIG=
Lucknow    
VILK 220800Z 00000KT 3000 HZ SCT020 SCT025 FEW030CB BKN100 33/29 Q1002 NOSIG=
Ludhiana   
VILD 220900Z 08007KT 4000 HZ FEW030 SCT100 31/26 Q1003=
Madurai    
VOMD 220900Z 29010KT 8000 FEW020 SCT100 36/21 Q1004 NOSIG=
Mohanbari  
VEMN 220903Z 02006KT 5000 HZ FEW020 SCT025 36/28 Q1000 NOSIG=
Mumbai     
VABB 220900Z 23012KT 4000 HZ SCT020 SCT025 30/25 Q1003 BECMG 5000 HZ=
Nagpur     
VANP 220900Z 22007KT 4000 HZ SCT020 SCT025 29/25 Q1004 NOSIG=
Patna      
VEPT 220900Z 15003KT 3500 HZ SCT018 FEW030CB BKN100 34/28 Q1001 NOSIG=
Safdarjung 
VIDD 220900Z 00000KT 2500 -RA SCT025 FEW035CB BKN090 33/27 Q1001 TEEMPO TSRA=
Ranchi     
VERC 220900Z 18004KT 4000 HZ SCT018 FEWCB030CB BKN100 28/25 Q1006 NOSIG=
Trichy     
VOTR 220900Z 29011G21KT 9999 SCT016 BKN100 35/21 Q1003 NOSIG=
Trivandrum 
VOTV 220900Z 30012KT 6000 FEW010 SCT015 FEW025CB BKN080 28/25 Q1006 NOSIG=
Udaipur    
VAUD 220900Z 09003KT 6000 SCT030 SCT035 33/23 Q1003 NOSIG=
Varanasi   
VEBN 220900Z 01003KT 6000 SCT020 SCT100 35/27 Q1000 NOSIG=
Vizag      
VOVZ 220900Z 6000 FEW018 FEW022TCU SCT220 35/24 Q1000 NOSIG =
Male       
VRMM 220900Z 28005KT 9999 FEW018 BKN260 31/25 Q1007 TEMPO FEW018CB=
Gan        
VRMG 220900Z 08005KT 9999 FEW018TCU 31/25 Q1007 NOSIG=
Kathmandu  
VNKT 220900Z NIL=
Dhaka      
VGHS 220900Z 23004KT 4000 HZ SCT012 FEW025CB BKN100 32/25 Q1001 TEMPO TSRA=
Colombo    
VCBI 220910Z 24009KT 9999 SCT018 30/24 Q1006 NOSIG=
Karachi    
OPKC 220855Z 29007KT 5000 FU FEW030 SCT100 31/25 Q1000 TEMPO 1000 TSRA FEW025CB=
Lahore     
OPLA 220855Z 08003KT 6000 SCT040 SCT100 36/23 Q1002 A29.60 TEMPO 33015G30KT 2000 TSRA FEW030CB=
Jammu      
VIJU 220830Z 25005KT 6000 FEW025 SCT030 33/25 Q1002 NOSIG=
Gwalior    
VIGR 220900Z 00000KT 5000 HZ SCT025 33/27 Q1000=